createdAt,value
2018-09-03T07:12:52.244Z,20
2018-09-03T07:13:12.444Z,25
2018-09-03T07:13:32.701Z,25
2018-09-03T07:13:52.933Z,25
2018-09-03T07:14:13.127Z,25
2018-09-03T07:14:33.344Z,25
2018-09-03T07:14:54.142Z,25
2018-09-03T07:15:14.345Z,25
2018-09-03T07:15:34.627Z,25
2018-09-03T07:15:54.900Z,30
2018-09-03T07:16:15.116Z,30
2018-09-03T07:16:35.366Z,30
2018-09-03T07:16:55.582Z,30
2018-09-03T07:17:15.790Z,30
2018-09-03T07:17:36.109Z,30
2018-09-03T07:17:56.347Z,30
2018-09-03T07:18:16.711Z,30
2018-09-03T07:18:37.113Z,30
2018-09-03T07:18:57.312Z,30
2018-09-03T07:19:17.540Z,30
2018-09-03T07:19:37.787Z,30
2018-09-03T07:19:58.028Z,30
2018-09-03T07:20:18.375Z,30
2018-09-03T07:20:39.042Z,30
2018-09-03T07:20:59.359Z,30
2018-09-03T07:21:19.809Z,30
2018-09-03T07:21:40.096Z,30
2018-09-03T07:22:00.331Z,30
2018-09-03T07:22:20.610Z,30
2018-09-03T07:22:40.846Z,30
2018-09-03T07:23:01.396Z,30
2018-09-03T07:23:21.677Z,35
2018-09-03T07:23:41.901Z,35
2018-09-03T07:24:02.196Z,35
2018-09-03T07:24:22.499Z,35
2018-09-03T07:24:42.756Z,35
2018-09-03T07:25:03.091Z,35
2018-09-03T07:25:23.383Z,35
2018-09-03T07:25:43.679Z,35
2018-09-03T07:26:03.992Z,35
2018-09-03T07:26:24.325Z,35
2018-09-03T07:26:44.517Z,35
2018-09-03T07:27:04.814Z,35
2018-09-03T07:27:25.222Z,35
2018-09-03T07:27:45.472Z,40
2018-09-03T07:28:05.874Z,40
2018-09-03T07:28:26.125Z,40
2018-09-03T07:28:46.432Z,40
2018-09-03T07:29:07.199Z,40
2018-09-03T07:29:27.738Z,40
2018-09-03T07:29:48.029Z,45
2018-09-03T07:30:08.298Z,40
2018-09-03T07:30:28.580Z,40
2018-09-03T07:30:49.046Z,40
2018-09-03T07:31:09.332Z,40
2018-09-03T07:31:29.700Z,40
2018-09-03T07:31:50.029Z,40
2018-09-03T07:32:10.394Z,40
2018-09-03T07:32:32.167Z,45
2018-09-03T07:32:52.922Z,40
2018-09-03T07:33:13.212Z,40
2018-09-03T07:33:33.475Z,40
2018-09-03T07:33:54.008Z,40
2018-09-03T07:34:14.509Z,40
2018-09-03T07:34:34.844Z,40
2018-09-03T07:34:55.568Z,40
2018-09-03T07:35:16.514Z,40
2018-09-03T07:35:36.947Z,45
2018-09-03T07:35:57.326Z,45
2018-09-03T07:36:17.724Z,45
2018-09-03T07:36:38.159Z,45
2018-09-03T07:36:58.419Z,45
2018-09-03T07:37:18.697Z,45
2018-09-03T07:37:39.407Z,45
2018-09-03T07:38:00.078Z,45
2018-09-03T07:38:21.013Z,45
2018-09-03T07:38:41.319Z,40
2018-09-03T07:39:01.859Z,40
2018-09-03T07:39:22.523Z,40
2018-09-03T07:39:43.062Z,35
2018-09-03T07:40:03.557Z,35
2018-09-03T07:40:24.417Z,35
2018-09-03T07:40:44.750Z,35
2018-09-03T07:41:05.267Z,35
2018-09-03T07:41:25.550Z,35
2018-09-03T07:41:45.765Z,35
2018-09-03T07:42:05.882Z,35
2018-09-03T07:42:26.132Z,35
2018-09-03T07:42:46.501Z,35
2018-09-03T07:43:06.920Z,35
2018-09-03T07:43:27.349Z,35
2018-09-03T07:43:47.976Z,35
2018-09-03T07:44:08.438Z,35
2018-09-03T07:44:29.811Z,35
2018-09-03T07:44:50.288Z,35
2018-09-03T07:45:10.621Z,35
2018-09-03T07:45:30.904Z,35
2018-09-03T07:45:51.194Z,35
2018-09-03T07:46:11.450Z,35
2018-09-03T07:46:31.747Z,35
2018-09-03T07:46:51.968Z,35
2018-09-03T07:47:12.213Z,40
2018-09-03T07:47:32.461Z,40
2018-09-03T07:47:52.787Z,40
2018-09-03T07:48:13.607Z,40
2018-09-03T07:48:34.012Z,45
2018-09-03T07:48:54.320Z,45
2018-09-03T07:49:14.503Z,45
2018-09-03T07:49:34.837Z,45
2018-09-03T07:49:55.122Z,45
2018-09-03T07:50:15.438Z,45
2018-09-03T07:50:35.877Z,45
2018-09-03T07:50:56.679Z,45
2018-09-03T07:51:18.235Z,45
2018-09-03T07:51:38.533Z,45
2018-09-03T07:51:58.892Z,45
2018-09-03T07:52:19.739Z,45
2018-09-03T07:52:41.798Z,45
2018-09-03T07:53:04.757Z,45
2018-09-03T07:53:25.027Z,45
2018-09-03T07:53:45.498Z,45
2018-09-03T07:54:05.817Z,45
2018-09-03T07:54:26.108Z,45
2018-09-03T07:54:46.571Z,45
2018-09-03T07:55:07.096Z,45
2018-09-03T07:55:27.316Z,45
2018-09-03T07:55:47.733Z,45
2018-09-03T07:56:08.155Z,45
2018-09-03T07:56:28.527Z,45
2018-09-03T07:56:48.912Z,45
2018-09-03T07:57:09.089Z,45
2018-09-03T07:57:29.534Z,45
2018-09-03T07:57:49.761Z,45
2018-09-03T07:58:10.220Z,45
2018-09-03T07:58:31.363Z,45
2018-09-03T07:58:51.728Z,45
2018-09-03T07:59:11.982Z,45
2018-09-03T07:59:32.361Z,45
2018-09-03T07:59:52.772Z,40
2018-09-03T08:00:13.115Z,40
2018-09-03T08:00:33.634Z,45
2018-09-03T08:00:53.955Z,45
2018-09-03T08:01:14.354Z,45
2018-09-03T08:01:34.713Z,45
2018-09-03T08:01:54.894Z,45
2018-09-03T08:02:15.231Z,45
2018-09-03T08:02:35.577Z,45
2018-09-03T08:02:56.007Z,45
2018-09-03T08:03:16.261Z,45
2018-09-03T08:03:36.645Z,40
2018-09-03T08:03:57.000Z,40
2018-09-03T08:04:17.622Z,40
2018-09-03T08:04:38.493Z,40
2018-09-03T08:04:59.179Z,40
2018-09-03T08:05:19.958Z,40
2018-09-03T08:05:40.404Z,40
2018-09-03T08:06:00.837Z,40
2018-09-03T08:06:21.441Z,40
2018-09-03T08:06:42.343Z,40
2018-09-03T08:07:02.777Z,40
2018-09-03T08:07:23.317Z,40
2018-09-03T08:07:43.938Z,40
2018-09-03T08:08:04.511Z,40
2018-09-03T08:08:24.854Z,40
2018-09-03T08:08:45.709Z,40
2018-09-03T08:09:06.812Z,40
2018-09-03T08:09:28.237Z,40
2018-09-03T08:09:49.008Z,40
2018-09-03T08:10:09.781Z,40
2018-09-03T08:10:30.953Z,40
2018-09-03T08:10:51.886Z,40
2018-09-03T08:11:12.668Z,40
2018-09-03T08:11:33.854Z,40
2018-09-03T08:11:54.681Z,40
2018-09-03T08:12:16.347Z,40
2018-09-03T08:12:37.265Z,40
2018-09-03T08:12:57.674Z,40
2018-09-03T08:13:17.919Z,40
2018-09-03T08:13:38.264Z,40
2018-09-03T08:13:58.552Z,40
2018-09-03T08:14:18.809Z,40
2018-09-03T08:14:39.169Z,40
2018-09-03T08:14:59.461Z,40
2018-09-03T08:15:19.833Z,40
2018-09-03T08:15:40.096Z,40
2018-09-03T08:16:00.615Z,40
2018-09-03T08:16:20.824Z,40
2018-09-03T08:16:41.148Z,40
2018-09-03T08:17:01.384Z,40
2018-09-03T08:17:21.638Z,40
2018-09-03T08:17:42.045Z,40
2018-09-03T08:18:02.373Z,40
2018-09-03T08:18:22.580Z,40
2018-09-03T08:18:42.961Z,40
2018-09-03T08:19:03.359Z,40
2018-09-03T08:19:23.764Z,40
2018-09-03T08:19:44.102Z,40
2018-09-03T08:20:04.737Z,40
2018-09-03T08:20:25.008Z,40
2018-09-03T08:20:45.401Z,35
2018-09-03T08:21:05.762Z,40
2018-09-03T08:21:26.291Z,40
2018-09-03T08:21:46.707Z,40
2018-09-03T08:22:07.102Z,35
2018-09-03T08:22:27.595Z,35
2018-09-03T08:22:47.862Z,35
2018-09-03T08:23:08.367Z,40
2018-09-03T08:23:28.794Z,40
2018-09-03T08:23:49.060Z,40
2018-09-03T08:24:09.381Z,40
2018-09-03T08:24:29.664Z,40
2018-09-03T08:24:49.874Z,40
2018-09-03T08:25:10.213Z,40
2018-09-03T08:25:30.875Z,40
2018-09-03T08:25:51.126Z,40
2018-09-03T08:26:11.270Z,40
2018-09-03T08:26:31.489Z,40
2018-09-03T08:26:51.728Z,40
2018-09-03T08:27:12.729Z,40
2018-09-03T08:27:32.933Z,40
2018-09-03T08:27:53.145Z,40
2018-09-03T08:28:13.381Z,40
2018-09-03T08:28:33.607Z,40
2018-09-03T08:28:53.792Z,40
2018-09-03T08:29:14.044Z,40
2018-09-03T08:29:34.254Z,40
2018-09-03T08:29:54.523Z,40
2018-09-03T08:30:14.777Z,40
2018-09-03T08:30:35.081Z,40
2018-09-03T08:30:55.367Z,40
2018-09-03T08:31:15.689Z,40
2018-09-03T08:31:36.684Z,40
2018-09-03T08:31:56.911Z,40
2018-09-03T08:32:17.083Z,40
2018-09-03T08:32:37.359Z,40
2018-09-03T08:32:57.567Z,40
2018-09-03T08:33:17.780Z,40
2018-09-03T08:33:38.077Z,40
2018-09-03T08:33:58.556Z,40
2018-09-03T08:34:18.826Z,40
2018-09-03T08:34:39.199Z,40
2018-09-03T08:34:59.495Z,40
2018-09-03T08:35:21.521Z,40
2018-09-03T08:35:42.150Z,40
2018-09-03T08:36:02.482Z,40
2018-09-03T08:36:22.791Z,40
2018-09-03T08:36:42.970Z,40
2018-09-03T08:37:03.227Z,40
2018-09-03T08:37:23.553Z,40
2018-09-03T08:37:44.007Z,40
2018-09-03T08:38:04.554Z,40
2018-09-03T08:38:24.940Z,40
2018-09-03T08:38:45.398Z,40
2018-09-03T08:39:05.890Z,40
2018-09-03T08:39:26.154Z,40
2018-09-03T08:39:46.408Z,40
2018-09-03T08:40:06.953Z,40
2018-09-03T08:40:27.441Z,40
2018-09-03T08:40:48.811Z,40
2018-09-03T08:41:09.504Z,40
2018-09-03T08:41:30.780Z,40
2018-09-03T08:41:51.476Z,40
2018-09-03T08:42:12.589Z,40
2018-09-03T08:42:33.442Z,40
2018-09-03T08:42:53.815Z,40
2018-09-03T08:43:14.195Z,40
2018-09-03T08:43:34.574Z,40
2018-09-03T08:43:54.988Z,40
2018-09-03T08:44:15.546Z,40
2018-09-03T08:44:39.708Z,40
2018-09-03T08:45:00.347Z,40
2018-09-03T08:45:21.881Z,40
2018-09-03T08:45:42.574Z,40
2018-09-03T08:46:03.470Z,40
2018-09-03T08:46:24.193Z,40
2018-09-03T08:46:44.583Z,40
2018-09-03T08:47:04.899Z,40
2018-09-03T08:47:25.554Z,40
2018-09-03T08:47:46.082Z,40
2018-09-03T08:48:07.577Z,40
2018-09-03T08:48:28.877Z,40
2018-09-03T08:48:49.156Z,45
2018-09-03T08:49:09.421Z,45
2018-09-03T08:49:29.792Z,45
2018-09-03T08:49:51.211Z,45
2018-09-03T08:50:11.606Z,45
2018-09-03T08:50:31.974Z,45
2018-09-03T08:50:52.246Z,45
2018-09-03T08:51:12.628Z,45
2018-09-03T08:51:33.046Z,45
2018-09-03T08:51:53.407Z,45
2018-09-03T08:52:13.738Z,45
2018-09-03T08:52:34.242Z,45
2018-09-03T08:52:54.716Z,45
2018-09-03T08:53:15.196Z,45
2018-09-03T08:53:35.687Z,45
2018-09-03T08:53:56.085Z,45
2018-09-03T08:54:16.500Z,45
2018-09-03T08:54:36.918Z,45
2018-09-03T08:54:57.264Z,45
2018-09-03T08:55:17.699Z,45
2018-09-03T08:55:38.305Z,45
2018-09-03T08:55:58.636Z,45
2018-09-03T08:56:19.159Z,45
2018-09-03T08:56:39.908Z,45
2018-09-03T08:57:00.665Z,45
2018-09-03T08:57:21.007Z,45
2018-09-03T08:57:41.388Z,45
2018-09-03T08:58:01.813Z,45
2018-09-03T08:58:22.080Z,45
2018-09-03T08:58:42.401Z,50
2018-09-03T08:59:02.823Z,45
2018-09-03T08:59:23.439Z,45
2018-09-03T08:59:43.904Z,45
2018-09-03T09:00:04.192Z,45
2018-09-03T09:00:24.700Z,45
2018-09-03T09:00:45.367Z,45
2018-09-03T09:01:05.727Z,45
2018-09-03T09:01:26.098Z,45
2018-09-03T09:01:46.659Z,45
2018-09-03T09:02:07.284Z,50
2018-09-03T09:02:28.123Z,60
2018-09-03T09:02:48.573Z,60
2018-09-03T09:03:09.821Z,60
2018-09-03T09:03:30.167Z,60
2018-09-03T09:03:50.544Z,55
2018-09-03T09:04:10.918Z,60
2018-09-03T09:04:31.193Z,60
2018-09-03T09:04:51.548Z,60
2018-09-03T09:05:11.876Z,65
2018-09-03T09:05:32.824Z,65
2018-09-03T09:05:54.121Z,65
2018-09-03T09:06:14.610Z,65
2018-09-03T09:06:35.357Z,65
2018-09-03T09:06:55.651Z,65
2018-09-03T09:07:16.064Z,60
2018-09-03T09:07:36.448Z,60
2018-09-03T09:07:57.056Z,60
2018-09-03T09:08:17.625Z,60
2018-09-03T09:08:38.327Z,60
2018-09-03T09:09:00.853Z,55
2018-09-03T09:09:22.376Z,55
2018-09-03T09:09:43.705Z,50
2018-09-03T09:10:04.226Z,50
2018-09-03T09:10:25.352Z,50
2018-09-03T09:10:45.800Z,50
2018-09-03T09:11:06.222Z,50
2018-09-03T09:11:26.508Z,50
2018-09-03T09:11:46.897Z,50
2018-09-03T09:12:07.570Z,50
2018-09-03T09:12:27.889Z,45
2018-09-03T09:12:48.161Z,45
2018-09-03T09:13:08.605Z,45
2018-09-03T09:13:28.947Z,45
2018-09-03T09:13:49.338Z,45
2018-09-03T09:14:09.772Z,45
2018-09-03T09:14:30.082Z,45
2018-09-03T09:14:50.446Z,45
2018-09-03T09:15:11.054Z,45
2018-09-03T09:15:31.311Z,45
2018-09-03T09:15:51.544Z,45
2018-09-03T09:16:11.764Z,45
2018-09-03T09:16:31.965Z,45
2018-09-03T09:16:52.187Z,40
2018-09-03T09:17:12.572Z,40
2018-09-03T09:17:33.161Z,40
2018-09-03T09:17:53.523Z,40
2018-09-03T09:18:13.824Z,40
2018-09-03T09:18:34.144Z,40
2018-09-03T09:18:54.461Z,40
2018-09-03T09:19:14.883Z,40
2018-09-03T09:19:35.243Z,40
2018-09-03T09:19:55.528Z,40
2018-09-03T09:20:15.810Z,45
2018-09-03T09:20:36.131Z,45
2018-09-03T09:20:56.514Z,45
2018-09-03T09:21:16.692Z,45
2018-09-03T09:21:36.987Z,45
2018-09-03T09:21:57.291Z,45
2018-09-03T09:22:17.663Z,45
2018-09-03T09:22:37.925Z,45
2018-09-03T09:22:58.152Z,45
2018-09-03T09:23:18.490Z,45
2018-09-03T09:23:38.777Z,45
2018-09-03T09:23:59.336Z,45
2018-09-03T09:24:19.955Z,50
2018-09-03T09:24:41.846Z,50
2018-09-03T09:25:02.198Z,45
2018-09-03T09:25:22.460Z,45
2018-09-03T09:25:42.763Z,45
2018-09-03T09:26:03.166Z,45
2018-09-03T09:26:23.538Z,45
2018-09-03T09:26:43.739Z,45
2018-09-03T09:27:04.119Z,45
2018-09-03T09:27:24.417Z,45
2018-09-03T09:27:44.696Z,45
2018-09-03T09:28:04.939Z,45
2018-09-03T09:28:25.245Z,40
2018-09-03T09:28:45.519Z,40
2018-09-03T09:29:06.020Z,40
2018-09-03T09:29:26.257Z,40
2018-09-03T09:29:46.661Z,40
2018-09-03T09:30:06.935Z,40
2018-09-03T09:30:27.222Z,40
2018-09-03T09:30:47.555Z,40
2018-09-03T09:31:07.841Z,40
2018-09-03T09:31:28.308Z,40
2018-09-03T09:31:48.617Z,40
2018-09-03T09:32:08.882Z,40
2018-09-03T09:32:29.110Z,40
2018-09-03T09:32:49.441Z,40
2018-09-03T09:33:09.716Z,40
2018-09-03T09:33:30.768Z,40
2018-09-03T09:33:51.161Z,40
2018-09-03T09:34:11.436Z,40
2018-09-03T09:34:31.881Z,40
2018-09-03T09:34:52.170Z,40
2018-09-03T09:35:12.529Z,40
2018-09-03T09:35:32.921Z,35
2018-09-03T09:35:53.227Z,35
2018-09-03T09:36:13.507Z,40
2018-09-03T09:36:33.851Z,35
2018-09-03T09:36:54.319Z,35
2018-09-03T09:37:14.525Z,35
2018-09-03T09:37:34.935Z,35
2018-09-03T09:37:55.277Z,35
2018-09-03T09:38:15.680Z,35
2018-09-03T09:38:35.954Z,35
2018-09-03T09:38:56.340Z,35
2018-09-03T09:39:16.709Z,35
2018-09-03T09:39:37.189Z,35
2018-09-03T09:39:57.606Z,35
2018-09-03T09:40:18.058Z,35
2018-09-03T09:40:38.421Z,40
2018-09-03T09:40:58.949Z,40
2018-09-03T09:41:19.390Z,40
2018-09-03T09:41:39.913Z,40
2018-09-03T09:42:00.299Z,40
2018-09-03T09:42:20.672Z,40
2018-09-03T09:42:41.183Z,40
2018-09-03T09:43:01.642Z,45
2018-09-03T09:43:22.143Z,40
2018-09-03T09:43:42.611Z,40
2018-09-03T09:44:03.004Z,40
2018-09-03T09:44:23.457Z,40
2018-09-03T09:44:43.954Z,45
2018-09-03T09:45:04.598Z,45
2018-09-03T09:45:24.949Z,45
2018-09-03T09:45:45.459Z,45
2018-09-03T09:46:05.724Z,45
2018-09-03T09:46:26.155Z,45
2018-09-03T09:46:46.540Z,45
2018-09-03T09:47:06.917Z,45
2018-09-03T09:47:27.243Z,45
2018-09-03T09:47:47.478Z,45
2018-09-03T09:48:07.751Z,45
2018-09-03T09:48:28.206Z,45
2018-09-03T09:48:48.624Z,45
2018-09-03T09:49:08.948Z,45
2018-09-03T09:49:29.365Z,45
2018-09-03T09:49:49.886Z,45
2018-09-03T09:50:10.240Z,50
2018-09-03T09:50:30.674Z,50
2018-09-03T09:50:51.122Z,50
2018-09-03T09:51:12.442Z,50
2018-09-03T09:51:32.977Z,45
2018-09-03T09:51:53.262Z,45
2018-09-03T09:52:13.596Z,45
2018-09-03T09:52:33.919Z,45
2018-09-03T09:52:54.328Z,45
2018-09-03T09:53:14.732Z,45
2018-09-03T09:53:35.777Z,45
2018-09-03T09:53:58.915Z,45
2018-09-03T09:54:20.852Z,45
2018-09-03T09:54:41.369Z,45
2018-09-03T09:55:02.282Z,45
2018-09-03T09:55:22.446Z,45
2018-09-03T12:43:55.294Z,30
2018-09-03T12:44:15.524Z,30
2018-09-03T12:44:36.135Z,30
2018-09-03T12:44:56.349Z,35
2018-09-03T12:45:16.606Z,35
2018-09-03T12:45:36.801Z,35
2018-09-03T12:45:57.009Z,40
2018-09-03T12:46:17.262Z,40
2018-09-03T12:46:37.491Z,40
2018-09-03T12:46:57.804Z,45
2018-09-03T12:47:18.077Z,45
2018-09-03T12:47:38.390Z,45
2018-09-03T12:47:58.728Z,45
2018-09-03T12:48:19.000Z,45
2018-09-03T12:48:39.324Z,45
2018-09-03T12:48:59.660Z,45
2018-09-03T12:49:19.964Z,45
2018-09-03T12:49:40.220Z,45
2018-09-03T12:50:00.825Z,50
2018-09-03T12:50:21.163Z,50
2018-09-03T12:50:41.456Z,50
2018-09-03T12:51:01.724Z,50
2018-09-03T12:51:22.071Z,50
2018-09-03T12:51:42.280Z,50
2018-09-03T12:52:02.469Z,50
2018-09-03T12:52:22.822Z,50
2018-09-03T12:52:43.088Z,50
2018-09-03T12:53:03.246Z,50
2018-09-03T12:53:23.502Z,50
2018-09-03T12:53:43.763Z,50
2018-09-03T12:54:04.580Z,50
2018-09-03T12:54:24.868Z,50
2018-09-03T12:54:45.193Z,55
2018-09-03T12:55:05.463Z,55
2018-09-03T12:55:25.752Z,55
2018-09-03T12:55:46.036Z,55
2018-09-03T12:56:06.249Z,55
2018-09-03T12:56:26.511Z,55
2018-09-03T12:56:46.771Z,55
2018-09-03T15:25:28.963Z,35
2018-09-03T15:25:49.148Z,35
2018-09-03T15:26:09.423Z,35
2018-09-03T15:26:29.634Z,35
2018-09-03T15:26:50.058Z,35
2018-09-03T15:27:10.276Z,35
2018-09-03T15:27:30.507Z,40
2018-09-03T15:27:50.691Z,40
2018-09-03T15:28:10.864Z,40
2018-09-03T15:28:31.071Z,40
2018-09-03T15:28:51.288Z,40
